sensor_id;sensor_type;location;lat;lon;timestamp;pressure;altitude;pressure_sealevel;temperature;humidity
63916;BME280;50094;51.356;-0.196;2022-08-04T00:00:18;100639.20;;;29.66;44.42
63916;BME280;50094;51.356;-0.196;2022-08-04T00:02:54;100638.14;;;29.63;44.66
63916;BME280;50094;51.356;-0.196;2022-08-04T00:05:38;100640.14;;;29.70;44.37
63916;BME280;50094;51.356;-0.196;2022-08-04T00:08:18;100637.60;;;29.99;43.85
63916;BME280;50094;51.356;-0.196;2022-08-04T00:10:51;100640.91;;;29.91;43.88
63916;BME280;50094;51.356;-0.196;2022-08-04T00:13:23;100645.30;;;29.40;43.91
63916;BME280;50094;51.356;-0.196;2022-08-04T00:15:52;100642.86;;;29.62;43.55
63916;BME280;50094;51.356;-0.196;2022-08-04T00:18:24;100643.60;;;29.55;43.82
63916;BME280;50094;51.356;-0.196;2022-08-04T00:20:57;100642.81;;;29.83;43.98
63916;BME280;50094;51.356;-0.196;2022-08-04T00:23:26;100643.70;;;29.84;43.91
63916;BME280;50094;51.356;-0.196;2022-08-04T00:25:54;100647.88;;;29.83;43.66
63916;BME280;50094;51.356;-0.196;2022-08-04T00:28:22;100646.19;;;29.83;43.80
63916;BME280;50094;51.356;-0.196;2022-08-04T00:30:52;100644.53;;;29.87;43.77
63916;BME280;50094;51.356;-0.196;2022-08-04T00:33:21;100643.68;;;30.02;43.12
63916;BME280;50094;51.356;-0.196;2022-08-04T00:35:49;100641.28;;;29.65;43.42
63916;BME280;50094;51.356;-0.196;2022-08-04T00:38:19;100644.58;;;29.98;43.12
63916;BME280;50094;51.356;-0.196;2022-08-04T00:40:59;100645.48;;;29.63;43.06
63916;BME280;50094;51.356;-0.196;2022-08-04T00:43:31;100647.36;;;29.97;42.31
63916;BME280;50094;51.356;-0.196;2022-08-04T00:46:19;100647.23;;;29.53;42.92
63916;BME280;50094;51.356;-0.196;2022-08-04T00:49:05;100652.08;;;29.80;43.31
63916;BME280;50094;51.356;-0.196;2022-08-04T00:51:43;100647.05;;;29.63;43.04
63916;BME280;50094;51.356;-0.196;2022-08-04T00:54:22;100640.86;;;29.64;42.50
63916;BME280;50094;51.356;-0.196;2022-08-04T00:57:05;100640.88;;;29.52;42.78
63916;BME280;50094;51.356;-0.196;2022-08-04T00:59:53;100638.93;;;29.80;42.48
63916;BME280;50094;51.356;-0.196;2022-08-04T01:02:33;100636.13;;;29.78;42.24
63916;BME280;50094;51.356;-0.196;2022-08-04T01:05:04;100636.88;;;29.72;42.51
63916;BME280;50094;51.356;-0.196;2022-08-04T01:07:55;100636.58;;;29.94;41.79
63916;BME280;50094;51.356;-0.196;2022-08-04T01:10:35;100636.48;;;29.76;41.59
63916;BME280;50094;51.356;-0.196;2022-08-04T01:14:28;100635.44;;;29.42;42.02
63916;BME280;50094;51.356;-0.196;2022-08-04T01:17:07;100633.81;;;29.55;41.42
63916;BME280;50094;51.356;-0.196;2022-08-04T01:19:58;100637.07;;;29.79;41.76
63916;BME280;50094;51.356;-0.196;2022-08-04T01:22:49;100633.35;;;29.55;41.83
63916;BME280;50094;51.356;-0.196;2022-08-04T01:25:41;100633.35;;;29.57;41.87
63916;BME280;50094;51.356;-0.196;2022-08-04T01:28:27;100633.97;;;29.55;41.67
63916;BME280;50094;51.356;-0.196;2022-08-04T01:30:57;100637.76;;;29.54;41.40
63916;BME280;50094;51.356;-0.196;2022-08-04T01:33:28;100639.69;;;29.56;41.14
63916;BME280;50094;51.356;-0.196;2022-08-04T01:36:02;100637.96;;;29.80;41.27
63916;BME280;50094;51.356;-0.196;2022-08-04T01:38:35;100638.02;;;29.75;41.44
63916;BME280;50094;51.356;-0.196;2022-08-04T01:41:03;100635.59;;;29.77;41.26
63916;BME280;50094;51.356;-0.196;2022-08-04T01:43:33;100633.85;;;29.82;41.24
63916;BME280;50094;51.356;-0.196;2022-08-04T01:46:03;100633.59;;;29.79;40.75
63916;BME280;50094;51.356;-0.196;2022-08-04T01:48:31;100634.23;;;29.58;40.13
63916;BME280;50094;51.356;-0.196;2022-08-04T01:51:03;100634.34;;;29.55;39.91
63916;BME280;50094;51.356;-0.196;2022-08-04T01:53:32;100635.04;;;29.33;40.83
63916;BME280;50094;51.356;-0.196;2022-08-04T01:56:01;100629.84;;;29.63;40.87
63916;BME280;50094;51.356;-0.196;2022-08-04T01:58:30;100632.23;;;29.38;40.57
63916;BME280;50094;51.356;-0.196;2022-08-04T02:00:59;100634.47;;;29.33;40.20
63916;BME280;50094;51.356;-0.196;2022-08-04T02:03:27;100638.16;;;29.61;40.05
63916;BME280;50094;51.356;-0.196;2022-08-04T02:06:02;100637.78;;;29.30;39.93
63916;BME280;50094;51.356;-0.196;2022-08-04T02:08:39;100636.30;;;29.86;39.52
63916;BME280;50094;51.356;-0.196;2022-08-04T02:11:14;100633.40;;;29.68;39.38
63916;BME280;50094;51.356;-0.196;2022-08-04T02:13:48;100631.72;;;29.34;40.00
63916;BME280;50094;51.356;-0.196;2022-08-04T02:16:26;100629.14;;;29.37;40.15
63916;BME280;50094;51.356;-0.196;2022-08-04T02:19:01;100630.64;;;29.45;39.81
63916;BME280;50094;51.356;-0.196;2022-08-04T02:21:31;100628.64;;;29.40;39.74
63916;BME280;50094;51.356;-0.196;2022-08-04T02:24:08;100631.15;;;29.42;39.82
63916;BME280;50094;51.356;-0.196;2022-08-04T02:26:41;100635.03;;;29.44;40.15
63916;BME280;50094;51.356;-0.196;2022-08-04T02:29:15;100632.87;;;29.79;39.45
63916;BME280;50094;51.356;-0.196;2022-08-04T02:31:48;100633.76;;;29.49;39.39
63916;BME280;50094;51.356;-0.196;2022-08-04T02:34:24;100631.99;;;29.10;39.39
63916;BME280;50094;51.356;-0.196;2022-08-04T02:36:54;100633.57;;;29.39;39.69
63916;BME280;50094;51.356;-0.196;2022-08-04T02:39:22;100632.23;;;29.15;39.61
63916;BME280;50094;51.356;-0.196;2022-08-04T02:41:53;100628.70;;;29.66;38.93
63916;BME280;50094;51.356;-0.196;2022-08-04T02:44:22;100626.74;;;29.36;38.57
63916;BME280;50094;51.356;-0.196;2022-08-04T02:46:51;100628.25;;;29.39;38.63
63916;BME280;50094;51.356;-0.196;2022-08-04T02:49:21;100633.62;;;29.48;38.36
63916;BME280;50094;51.356;-0.196;2022-08-04T02:51:51;100630.64;;;29.20;39.14
63916;BME280;50094;51.356;-0.196;2022-08-04T02:54:22;100630.70;;;29.47;38.60
63916;BME280;50094;51.356;-0.196;2022-08-04T02:56:52;100631.03;;;29.54;38.63
63916;BME280;50094;51.356;-0.196;2022-08-04T02:59:26;100633.69;;;29.64;38.84
63916;BME280;50094;51.356;-0.196;2022-08-04T03:01:56;100631.90;;;29.29;38.75
63916;BME280;50094;51.356;-0.196;2022-08-04T03:04:34;100631.74;;;29.29;39.06
63916;BME280;50094;51.356;-0.196;2022-08-04T03:07:23;100631.57;;;29.26;39.31
63916;BME280;50094;51.356;-0.196;2022-08-04T03:10:25;100626.01;;;29.26;39.01
63916;BME280;50094;51.356;-0.196;2022-08-04T03:15:41;100628.45;;;29.57;39.07
63916;BME280;50094;51.356;-0.196;2022-08-04T03:18:38;100627.86;;;29.20;38.81
63916;BME280;50094;51.356;-0.196;2022-08-04T03:21:45;100624.32;;;29.20;39.01
63916;BME280;50094;51.356;-0.196;2022-08-04T03:25:21;100625.61;;;29.51;39.05
63916;BME280;50094;51.356;-0.196;2022-08-04T03:28:20;100627.46;;;29.49;39.30
63916;BME280;50094;51.356;-0.196;2022-08-04T03:31:10;100630.26;;;29.53;39.12
63916;BME280;50094;51.356;-0.196;2022-08-04T03:33:59;100619.44;;;29.27;39.10
63916;BME280;50094;51.356;-0.196;2022-08-04T03:36:56;100623.66;;;29.47;38.93
63916;BME280;50094;51.356;-0.196;2022-08-04T03:42:33;100621.88;;;29.57;38.55
63916;BME280;50094;51.356;-0.196;2022-08-04T03:45:23;100626.86;;;29.57;38.69
63916;BME280;50094;51.356;-0.196;2022-08-04T03:48:12;100624.42;;;29.28;38.95
63916;BME280;50094;51.356;-0.196;2022-08-04T03:52:00;100622.28;;;29.62;38.53
63916;BME280;50094;51.356;-0.196;2022-08-04T03:57:14;100632.27;;;29.89;38.11
63916;BME280;50094;51.356;-0.196;2022-08-04T03:59:58;100632.96;;;29.53;37.95
63916;BME280;50094;51.356;-0.196;2022-08-04T04:02:44;100634.14;;;29.46;38.01
63916;BME280;50094;51.356;-0.196;2022-08-04T04:06:02;100635.90;;;29.18;38.00
63916;BME280;50094;51.356;-0.196;2022-08-04T04:10:02;100642.57;;;29.16;38.06
63916;BME280;50094;51.356;-0.196;2022-08-04T04:12:51;100647.35;;;29.08;38.68
63916;BME280;50094;51.356;-0.196;2022-08-04T04:15:41;100647.27;;;29.42;38.44
63916;BME280;50094;51.356;-0.196;2022-08-04T04:18:19;100651.15;;;29.37;38.66
63916;BME280;50094;51.356;-0.196;2022-08-04T04:21:09;100649.03;;;29.41;38.40
63916;BME280;50094;51.356;-0.196;2022-08-04T04:23:56;100647.05;;;29.29;38.82
63916;BME280;50094;51.356;-0.196;2022-08-04T04:26:53;100647.47;;;29.29;38.80
63916;BME280;50094;51.356;-0.196;2022-08-04T04:29:35;100649.10;;;29.08;38.73
63916;BME280;50094;51.356;-0.196;2022-08-04T04:32:21;100649.49;;;29.40;38.32
63916;BME280;50094;51.356;-0.196;2022-08-04T04:35:02;100646.47;;;29.39;38.27
63916;BME280;50094;51.356;-0.196;2022-08-04T04:37:47;100649.53;;;29.40;37.95
63916;BME280;50094;51.356;-0.196;2022-08-04T04:40:29;100651.38;;;29.36;38.08
63916;BME280;50094;51.356;-0.196;2022-08-04T04:43:16;100652.55;;;29.53;38.16
63916;BME280;50094;51.356;-0.196;2022-08-04T04:45:56;100652.39;;;29.34;37.98
63916;BME280;50094;51.356;-0.196;2022-08-04T04:48:35;100655.79;;;29.21;38.26
63916;BME280;50094;51.356;-0.196;2022-08-04T04:51:12;100658.25;;;28.92;38.42
63916;BME280;50094;51.356;-0.196;2022-08-04T04:53:57;100660.49;;;29.25;38.21
63916;BME280;50094;51.356;-0.196;2022-08-04T04:56:36;100662.48;;;29.27;38.05
63916;BME280;50094;51.356;-0.196;2022-08-04T04:59:10;100663.54;;;29.35;38.01
63916;BME280;50094;51.356;-0.196;2022-08-04T05:01:50;100664.83;;;29.34;38.05
63916;BME280;50094;51.356;-0.196;2022-08-04T05:04:30;100666.20;;;29.35;38.06
63916;BME280;50094;51.356;-0.196;2022-08-04T05:07:32;100667.60;;;28.98;38.32
63916;BME280;50094;51.356;-0.196;2022-08-04T05:10:13;100671.40;;;29.25;38.28
63916;BME280;50094;51.356;-0.196;2022-08-04T05:12:56;100674.99;;;29.23;38.31
63916;BME280;50094;51.356;-0.196;2022-08-04T05:15:34;100674.60;;;29.33;38.14
63916;BME280;50094;51.356;-0.196;2022-08-04T05:18:05;100677.51;;;29.04;38.13
63916;BME280;50094;51.356;-0.196;2022-08-04T05:20:36;100683.71;;;29.40;37.95
63916;BME280;50094;51.356;-0.196;2022-08-04T05:23:10;100689.43;;;29.15;37.65
63916;BME280;50094;51.356;-0.196;2022-08-04T05:25:42;100694.39;;;28.95;37.26
63916;BME280;50094;51.356;-0.196;2022-08-04T05:28:15;100697.56;;;29.48;37.16
63916;BME280;50094;51.356;-0.196;2022-08-04T05:30:48;100693.35;;;29.40;37.37
63916;BME280;50094;51.356;-0.196;2022-08-04T05:33:21;100694.98;;;29.40;37.26
63916;BME280;50094;51.356;-0.196;2022-08-04T05:35:54;100696.71;;;29.44;37.17
63916;BME280;50094;51.356;-0.196;2022-08-04T05:38:38;100696.94;;;29.43;37.19
63916;BME280;50094;51.356;-0.196;2022-08-04T05:41:07;100698.44;;;29.47;37.01
63916;BME280;50094;51.356;-0.196;2022-08-04T05:43:35;100701.79;;;29.25;37.38
63916;BME280;50094;51.356;-0.196;2022-08-04T05:46:03;100704.49;;;29.10;37.01
63916;BME280;50094;51.356;-0.196;2022-08-04T05:48:32;100704.51;;;29.34;36.94
63916;BME280;50094;51.356;-0.196;2022-08-04T05:51:00;100705.92;;;29.39;36.88
63916;BME280;50094;51.356;-0.196;2022-08-04T05:53:29;100707.47;;;29.55;36.48
63916;BME280;50094;51.356;-0.196;2022-08-04T05:55:59;100706.98;;;29.07;36.84
63916;BME280;50094;51.356;-0.196;2022-08-04T05:58:28;100706.75;;;29.20;36.92
63916;BME280;50094;51.356;-0.196;2022-08-04T06:00:58;100705.40;;;29.34;36.90
63916;BME280;50094;51.356;-0.196;2022-08-04T06:03:28;100704.92;;;29.28;36.66
63916;BME280;50094;51.356;-0.196;2022-08-04T06:05:57;100701.93;;;29.69;36.57
63916;BME280;50094;51.356;-0.196;2022-08-04T06:08:25;100704.07;;;29.72;36.91
63916;BME280;50094;51.356;-0.196;2022-08-04T06:10:55;100705.16;;;29.84;36.65
63916;BME280;50094;51.356;-0.196;2022-08-04T06:13:29;100707.46;;;29.98;36.57
63916;BME280;50094;51.356;-0.196;2022-08-04T06:15:57;100707.91;;;29.72;36.64
63916;BME280;50094;51.356;-0.196;2022-08-04T06:18:28;100709.01;;;30.24;36.04
63916;BME280;50094;51.356;-0.196;2022-08-04T06:20:57;100705.63;;;29.88;36.50
63916;BME280;50094;51.356;-0.196;2022-08-04T06:23:29;100706.78;;;29.99;36.46
63916;BME280;50094;51.356;-0.196;2022-08-04T06:26:00;100706.78;;;29.87;36.14
63916;BME280;50094;51.356;-0.196;2022-08-04T06:28:28;100710.07;;;29.77;36.11
63916;BME280;50094;51.356;-0.196;2022-08-04T06:30:56;100709.41;;;29.94;36.15
63916;BME280;50094;51.356;-0.196;2022-08-04T06:33:24;100713.63;;;29.87;36.38
63916;BME280;50094;51.356;-0.196;2022-08-04T06:35:53;100714.70;;;29.74;36.27
63916;BME280;50094;51.356;-0.196;2022-08-04T06:38:24;100715.24;;;29.94;36.28
63916;BME280;50094;51.356;-0.196;2022-08-04T06:40:52;100717.78;;;29.92;36.64
63916;BME280;50094;51.356;-0.196;2022-08-04T06:43:21;100720.16;;;29.81;36.80
63916;BME280;50094;51.356;-0.196;2022-08-04T06:45:49;100722.97;;;29.91;36.62
63916;BME280;50094;51.356;-0.196;2022-08-04T06:48:17;100725.13;;;30.02;36.76
63916;BME280;50094;51.356;-0.196;2022-08-04T06:50:47;100725.14;;;30.09;36.69
63916;BME280;50094;51.356;-0.196;2022-08-04T06:53:16;100720.39;;;30.14;36.14
63916;BME280;50094;51.356;-0.196;2022-08-04T06:55:45;100724.52;;;30.04;36.69
63916;BME280;50094;51.356;-0.196;2022-08-04T06:58:14;100728.67;;;30.16;36.55
63916;BME280;50094;51.356;-0.196;2022-08-04T07:00:44;100729.72;;;29.93;36.40
63916;BME280;50094;51.356;-0.196;2022-08-04T07:03:14;100730.91;;;29.95;36.33
63916;BME280;50094;51.356;-0.196;2022-08-04T07:05:42;100730.85;;;30.14;36.20
63916;BME280;50094;51.356;-0.196;2022-08-04T07:08:12;100734.01;;;30.19;36.18
63916;BME280;50094;51.356;-0.196;2022-08-04T07:10:40;100734.15;;;30.07;35.77
63916;BME280;50094;51.356;-0.196;2022-08-04T07:13:08;100734.80;;;30.33;35.40
63916;BME280;50094;51.356;-0.196;2022-08-04T07:15:40;100736.15;;;30.36;35.87
63916;BME280;50094;51.356;-0.196;2022-08-04T07:18:08;100735.94;;;30.22;36.03
63916;BME280;50094;51.356;-0.196;2022-08-04T07:20:35;100733.54;;;29.77;36.10
63916;BME280;50094;51.356;-0.196;2022-08-04T07:23:06;100736.76;;;29.95;36.29
63916;BME280;50094;51.356;-0.196;2022-08-04T07:25:35;100738.62;;;29.90;36.24
63916;BME280;50094;51.356;-0.196;2022-08-04T07:28:02;100735.44;;;29.97;36.16
63916;BME280;50094;51.356;-0.196;2022-08-04T07:30:30;100740.05;;;30.07;35.96
63916;BME280;50094;51.356;-0.196;2022-08-04T07:33:06;100740.47;;;30.12;36.03
63916;BME280;50094;51.356;-0.196;2022-08-04T07:35:34;100742.14;;;30.11;35.96
63916;BME280;50094;51.356;-0.196;2022-08-04T07:38:03;100740.30;;;29.93;35.48
63916;BME280;50094;51.356;-0.196;2022-08-04T07:40:31;100739.75;;;30.24;36.03
63916;BME280;50094;51.356;-0.196;2022-08-04T07:42:59;100741.97;;;30.16;35.78
63916;BME280;50094;51.356;-0.196;2022-08-04T07:45:26;100742.53;;;30.27;35.93
63916;BME280;50094;51.356;-0.196;2022-08-04T07:47:54;100742.18;;;30.17;35.68
63916;BME280;50094;51.356;-0.196;2022-08-04T07:50:22;100744.70;;;30.04;35.86
63916;BME280;50094;51.356;-0.196;2022-08-04T07:52:55;100741.94;;;30.18;35.60
63916;BME280;50094;51.356;-0.196;2022-08-04T07:55:24;100739.17;;;30.35;35.29
63916;BME280;50094;51.356;-0.196;2022-08-04T07:57:52;100743.03;;;30.29;35.61
63916;BME280;50094;51.356;-0.196;2022-08-04T08:00:20;100742.35;;;30.16;35.48
63916;BME280;50094;51.356;-0.196;2022-08-04T08:02:49;100747.63;;;30.04;35.61
63916;BME280;50094;51.356;-0.196;2022-08-04T08:05:18;100746.68;;;29.73;35.53
63916;BME280;50094;51.356;-0.196;2022-08-04T08:07:46;100744.02;;;29.91;35.75
63916;BME280;50094;51.356;-0.196;2022-08-04T08:10:14;100741.54;;;30.10;35.56
63916;BME280;50094;51.356;-0.196;2022-08-04T08:12:43;100742.46;;;30.32;34.97
63916;BME280;50094;51.356;-0.196;2022-08-04T08:15:11;100742.93;;;30.27;35.65
63916;BME280;50094;51.356;-0.196;2022-08-04T08:17:38;100740.32;;;29.95;35.46
63916;BME280;50094;51.356;-0.196;2022-08-04T08:20:07;100737.56;;;30.07;35.10
63916;BME280;50094;51.356;-0.196;2022-08-04T08:22:36;100736.81;;;30.66;34.94
63916;BME280;50094;51.356;-0.196;2022-08-04T08:25:04;100741.00;;;30.17;34.84
63916;BME280;50094;51.356;-0.196;2022-08-04T08:27:32;100743.94;;;30.04;35.29
63916;BME280;50094;51.356;-0.196;2022-08-04T08:29:59;100744.30;;;30.22;34.81
63916;BME280;50094;51.356;-0.196;2022-08-04T08:32:28;100744.42;;;30.29;35.26
63916;BME280;50094;51.356;-0.196;2022-08-04T08:34:55;100744.08;;;30.12;35.03
63916;BME280;50094;51.356;-0.196;2022-08-04T08:37:29;100741.73;;;30.07;35.21
63916;BME280;50094;51.356;-0.196;2022-08-04T08:40:06;100737.65;;;30.15;35.12
63916;BME280;50094;51.356;-0.196;2022-08-04T08:42:52;100732.75;;;30.25;35.21
63916;BME280;50094;51.356;-0.196;2022-08-04T08:45:36;100729.01;;;30.39;34.98
63916;BME280;50094;51.356;-0.196;2022-08-04T08:48:22;100731.03;;;30.44;34.63
63916;BME280;50094;51.356;-0.196;2022-08-04T08:51:13;100732.65;;;30.63;34.40
63916;BME280;50094;51.356;-0.196;2022-08-04T08:53:57;100728.88;;;30.21;34.45
63916;BME280;50094;51.356;-0.196;2022-08-04T08:56:38;100730.74;;;30.33;34.52
63916;BME280;50094;51.356;-0.196;2022-08-04T08:59:26;100739.85;;;30.24;34.45
63916;BME280;50094;51.356;-0.196;2022-08-04T09:02:33;100742.80;;;29.97;34.66
63916;BME280;50094;51.356;-0.196;2022-08-04T09:05:19;100739.37;;;29.64;35.10
63916;BME280;50094;51.356;-0.196;2022-08-04T09:08:01;100737.82;;;29.76;35.20
63916;BME280;50094;51.356;-0.196;2022-08-04T09:10:40;100734.77;;;30.33;34.89
63916;BME280;50094;51.356;-0.196;2022-08-04T09:13:15;100738.13;;;30.36;34.76
63916;BME280;50094;51.356;-0.196;2022-08-04T09:15:51;100743.74;;;30.06;34.77
63916;BME280;50094;51.356;-0.196;2022-08-04T09:18:24;100742.93;;;30.00;34.72
63916;BME280;50094;51.356;-0.196;2022-08-04T09:20:59;100740.91;;;30.06;35.02
63916;BME280;50094;51.356;-0.196;2022-08-04T09:23:39;100745.47;;;30.55;34.50
63916;BME280;50094;51.356;-0.196;2022-08-04T09:26:17;100744.37;;;30.37;34.05
63916;BME280;50094;51.356;-0.196;2022-08-04T09:28:50;100742.83;;;30.20;34.74
63916;BME280;50094;51.356;-0.196;2022-08-04T09:31:23;100744.23;;;30.08;35.16
63916;BME280;50094;51.356;-0.196;2022-08-04T09:33:59;100744.03;;;30.57;34.51
63916;BME280;50094;51.356;-0.196;2022-08-04T09:36:35;100743.15;;;30.53;34.33
63916;BME280;50094;51.356;-0.196;2022-08-04T09:39:13;100746.06;;;30.00;34.69
63916;BME280;50094;51.356;-0.196;2022-08-04T09:41:54;100756.34;;;30.33;34.25
63916;BME280;50094;51.356;-0.196;2022-08-04T09:44:33;100759.80;;;30.29;34.44
63916;BME280;50094;51.356;-0.196;2022-08-04T09:47:13;100755.30;;;30.54;34.30
63916;BME280;50094;51.356;-0.196;2022-08-04T09:49:49;100753.60;;;30.37;34.84
63916;BME280;50094;51.356;-0.196;2022-08-04T09:52:27;100750.34;;;30.11;34.64
63916;BME280;50094;51.356;-0.196;2022-08-04T09:55:08;100758.59;;;30.13;34.90
63916;BME280;50094;51.356;-0.196;2022-08-04T09:57:48;100757.80;;;30.18;34.57
63916;BME280;50094;51.356;-0.196;2022-08-04T10:00:21;100760.35;;;30.07;34.71
63916;BME280;50094;51.356;-0.196;2022-08-04T10:02:54;100763.27;;;30.24;34.35
63916;BME280;50094;51.356;-0.196;2022-08-04T10:05:25;100765.14;;;30.29;34.40
63916;BME280;50094;51.356;-0.196;2022-08-04T10:08:03;100769.72;;;30.50;34.48
63916;BME280;50094;51.356;-0.196;2022-08-04T10:10:44;100771.67;;;30.02;34.99
63916;BME280;50094;51.356;-0.196;2022-08-04T10:13:22;100764.57;;;29.87;34.92
63916;BME280;50094;51.356;-0.196;2022-08-04T10:16:06;100764.33;;;29.89;34.93
63916;BME280;50094;51.356;-0.196;2022-08-04T10:18:46;100763.62;;;29.91;34.96
63916;BME280;50094;51.356;-0.196;2022-08-04T10:21:21;100763.86;;;30.26;34.95
63916;BME280;50094;51.356;-0.196;2022-08-04T10:24:03;100762.60;;;30.14;34.41
63916;BME280;50094;51.356;-0.196;2022-08-04T10:26:44;100778.10;;;30.08;34.71
63916;BME280;50094;51.356;-0.196;2022-08-04T10:29:15;100776.37;;;30.35;35.11
63916;BME280;50094;51.356;-0.196;2022-08-04T10:31:47;100775.19;;;30.21;35.11
63916;BME280;50094;51.356;-0.196;2022-08-04T10:34:24;100775.62;;;30.07;34.49
63916;BME280;50094;51.356;-0.196;2022-08-04T10:36:58;100776.43;;;29.94;34.81
63916;BME280;50094;51.356;-0.196;2022-08-04T10:39:32;100776.45;;;30.19;34.34
63916;BME280;50094;51.356;-0.196;2022-08-04T10:42:14;100775.11;;;30.02;34.28
63916;BME280;50094;51.356;-0.196;2022-08-04T10:47:42;100778.82;;;29.93;34.35
63916;BME280;50094;51.356;-0.196;2022-08-04T10:50:12;100777.35;;;30.06;34.61
63916;BME280;50094;51.356;-0.196;2022-08-04T10:52:45;100775.53;;;30.01;34.49
63916;BME280;50094;51.356;-0.196;2022-08-04T10:55:17;100771.08;;;30.17;34.78
63916;BME280;50094;51.356;-0.196;2022-08-04T10:57:49;100772.96;;;30.24;34.60
63916;BME280;50094;51.356;-0.196;2022-08-04T11:00:23;100779.32;;;30.29;34.00
63916;BME280;50094;51.356;-0.196;2022-08-04T11:02:54;100781.25;;;30.16;34.26
63916;BME280;50094;51.356;-0.196;2022-08-04T11:05:30;100782.12;;;30.45;34.06
63916;BME280;50094;51.356;-0.196;2022-08-04T11:08:04;100781.65;;;29.95;34.07
63916;BME280;50094;51.356;-0.196;2022-08-04T11:10:41;100786.30;;;29.81;34.47
63916;BME280;50094;51.356;-0.196;2022-08-04T11:13:14;100787.51;;;29.92;34.74
63916;BME280;50094;51.356;-0.196;2022-08-04T11:15:48;100781.91;;;29.75;34.83
63916;BME280;50094;51.356;-0.196;2022-08-04T11:18:24;100781.06;;;29.99;34.84
63916;BME280;50094;51.356;-0.196;2022-08-04T11:20:58;100780.31;;;30.08;34.65
63916;BME280;50094;51.356;-0.196;2022-08-04T11:23:30;100780.05;;;30.30;34.24
63916;BME280;50094;51.356;-0.196;2022-08-04T11:26:05;100784.29;;;30.43;34.14
63916;BME280;50094;51.356;-0.196;2022-08-04T11:28:45;100787.20;;;30.18;34.05
63916;BME280;50094;51.356;-0.196;2022-08-04T11:31:19;100790.76;;;30.09;34.01
63916;BME280;50094;51.356;-0.196;2022-08-04T11:33:54;100795.86;;;30.06;34.35
63916;BME280;50094;51.356;-0.196;2022-08-04T11:36:29;100797.61;;;29.95;34.50
63916;BME280;50094;51.356;-0.196;2022-08-04T11:39:05;100797.87;;;29.98;34.67
63916;BME280;50094;51.356;-0.196;2022-08-04T11:41:41;100798.02;;;29.85;34.77
63916;BME280;50094;51.356;-0.196;2022-08-04T11:44:19;100798.46;;;29.96;34.86
63916;BME280;50094;51.356;-0.196;2022-08-04T11:46:51;100796.86;;;29.90;34.98
63916;BME280;50094;51.356;-0.196;2022-08-04T11:49:28;100798.55;;;30.14;34.18
63916;BME280;50094;51.356;-0.196;2022-08-04T11:52:00;100796.34;;;30.50;33.81
63916;BME280;50094;51.356;-0.196;2022-08-04T11:54:29;100793.97;;;30.14;33.95
63916;BME280;50094;51.356;-0.196;2022-08-04T11:56:57;100796.01;;;29.95;34.62
63916;BME280;50094;51.356;-0.196;2022-08-04T11:59:26;100798.79;;;30.04;34.73
63916;BME280;50094;51.356;-0.196;2022-08-04T12:02:06;100792.74;;;29.89;34.67
63916;BME280;50094;51.356;-0.196;2022-08-04T12:04:49;100796.55;;;30.20;34.03
63916;BME280;50094;51.356;-0.196;2022-08-04T12:07:22;100790.02;;;30.01;34.06
63916;BME280;50094;51.356;-0.196;2022-08-04T12:10:02;100783.56;;;30.06;33.83
63916;BME280;50094;51.356;-0.196;2022-08-04T12:12:40;100781.93;;;30.22;33.97
63916;BME280;50094;51.356;-0.196;2022-08-04T12:15:17;100777.97;;;29.97;33.88
63916;BME280;50094;51.356;-0.196;2022-08-04T12:17:53;100786.59;;;29.64;34.62
63916;BME280;50094;51.356;-0.196;2022-08-04T12:20:24;100787.65;;;29.57;34.77
63916;BME280;50094;51.356;-0.196;2022-08-04T12:22:54;100783.96;;;29.92;34.92
63916;BME280;50094;51.356;-0.196;2022-08-04T12:25:26;100783.68;;;30.10;34.93
63916;BME280;50094;51.356;-0.196;2022-08-04T12:28:02;100785.32;;;30.04;34.42
63916;BME280;50094;51.356;-0.196;2022-08-04T12:30:35;100788.50;;;30.03;34.43
63916;BME280;50094;51.356;-0.196;2022-08-04T12:33:09;100791.07;;;30.02;34.58
63916;BME280;50094;51.356;-0.196;2022-08-04T12:35:43;100791.25;;;30.20;34.70
63916;BME280;50094;51.356;-0.196;2022-08-04T12:38:13;100789.64;;;30.41;34.48
63916;BME280;50094;51.356;-0.196;2022-08-04T12:40:46;100792.46;;;30.33;34.70
63916;BME280;50094;51.356;-0.196;2022-08-04T12:43:19;100789.99;;;30.17;34.72
63916;BME280;50094;51.356;-0.196;2022-08-04T12:45:50;100794.45;;;30.47;33.99
63916;BME280;50094;51.356;-0.196;2022-08-04T12:48:20;100803.27;;;30.38;34.50
63916;BME280;50094;51.356;-0.196;2022-08-04T12:50:49;100794.14;;;30.12;34.67
63916;BME280;50094;51.356;-0.196;2022-08-04T12:53:18;100796.59;;;30.28;34.50
63916;BME280;50094;51.356;-0.196;2022-08-04T12:55:48;100801.72;;;30.60;34.04
63916;BME280;50094;51.356;-0.196;2022-08-04T12:58:19;100802.51;;;30.35;34.06
63916;BME280;50094;51.356;-0.196;2022-08-04T13:00:55;100799.79;;;30.09;34.38
63916;BME280;50094;51.356;-0.196;2022-08-04T13:03:28;100795.93;;;30.15;34.26
63916;BME280;50094;51.356;-0.196;2022-08-04T13:05:56;100794.82;;;30.11;34.36
63916;BME280;50094;51.356;-0.196;2022-08-04T13:08:24;100793.00;;;30.12;34.39
63916;BME280;50094;51.356;-0.196;2022-08-04T13:10:56;100796.38;;;30.33;34.00
63916;BME280;50094;51.356;-0.196;2022-08-04T13:13:26;100800.94;;;30.40;33.88
63916;BME280;50094;51.356;-0.196;2022-08-04T13:15:57;100793.11;;;30.13;33.88
63916;BME280;50094;51.356;-0.196;2022-08-04T13:18:26;100791.86;;;30.44;33.68
63916;BME280;50094;51.356;-0.196;2022-08-04T13:20:54;100792.27;;;30.00;34.16
63916;BME280;50094;51.356;-0.196;2022-08-04T13:23:25;100788.29;;;30.52;33.38
63916;BME280;50094;51.356;-0.196;2022-08-04T13:25:55;100790.72;;;30.04;33.89
63916;BME280;50094;51.356;-0.196;2022-08-04T13:28:25;100791.84;;;30.14;33.76
63916;BME280;50094;51.356;-0.196;2022-08-04T13:30:56;100793.08;;;30.43;33.74
63916;BME280;50094;51.356;-0.196;2022-08-04T13:33:28;100795.31;;;30.03;33.95
63916;BME280;50094;51.356;-0.196;2022-08-04T13:35:57;100790.08;;;29.96;34.22